createdAt,value
2022-10-16T00:01:39.244Z,13.14
2022-10-16T00:04:06.304Z,12.94
2022-10-16T00:06:33.231Z,13.12
2022-10-16T00:09:00.434Z,13.10
2022-10-16T00:11:30.579Z,12.87
2022-10-16T00:14:00.074Z,13.07
2022-10-16T00:16:28.163Z,13.01
2022-10-16T00:18:55.704Z,13.01
2022-10-16T00:21:25.090Z,12.98
2022-10-16T00:23:57.820Z,12.94
2022-10-16T00:26:24.633Z,12.90
2022-10-16T00:28:52.867Z,12.90
2022-10-16T00:31:22.066Z,12.88
2022-10-16T00:33:49.427Z,12.86
2022-10-16T00:36:19.084Z,12.68
2022-10-16T00:38:48.581Z,12.76
2022-10-16T00:41:18.486Z,12.82
2022-10-16T00:43:46.400Z,12.62
2022-10-16T00:46:27.773Z,12.76
2022-10-16T00:49:02.012Z,12.77
2022-10-16T00:51:35.025Z,12.71
2022-10-16T00:54:05.286Z,12.74
2022-10-16T00:56:34.940Z,12.80
2022-10-16T00:59:06.517Z,12.68
2022-10-16T01:01:33.759Z,12.85
2022-10-16T01:04:00.483Z,12.68
2022-10-16T01:07:07.213Z,12.79
2022-10-16T01:09:54.493Z,12.88
2022-10-16T01:12:27.462Z,12.89
2022-10-16T01:15:10.169Z,12.77
2022-10-16T01:17:52.601Z,12.92
2022-10-16T01:20:39.008Z,13.00
2022-10-16T01:23:25.461Z,12.98
2022-10-16T01:26:04.348Z,13.10
2022-10-16T01:28:42.989Z,12.94
2022-10-16T01:31:14.880Z,12.93
2022-10-16T01:33:46.676Z,13.06
2022-10-16T01:36:18.715Z,13.04
2022-10-16T01:38:50.926Z,13.03
2022-10-16T01:41:26.001Z,12.88
2022-10-16T01:44:04.555Z,12.84
2022-10-16T01:46:32.323Z,13.03
2022-10-16T01:49:01.932Z,13.03
2022-10-16T01:51:30.665Z,12.95
2022-10-16T01:54:02.452Z,13.05
2022-10-16T01:56:30.695Z,13.08
2022-10-16T01:59:02.966Z,12.93
2022-10-16T02:01:32.852Z,13.05
2022-10-16T02:04:08.811Z,12.88
2022-10-16T02:06:38.155Z,12.88
2022-10-16T02:09:04.784Z,12.94
2022-10-16T02:11:31.696Z,13.01
2022-10-16T02:14:07.342Z,12.99
2022-10-16T02:16:52.465Z,12.84
2022-10-16T02:19:23.322Z,12.85
2022-10-16T02:22:11.221Z,12.95
2022-10-16T02:24:52.806Z,12.90
2022-10-16T02:27:23.595Z,12.76
2022-10-16T02:29:59.997Z,12.76
2022-10-16T02:32:34.063Z,12.87
2022-10-16T02:35:02.189Z,12.82
2022-10-16T02:37:30.598Z,12.65
2022-10-16T02:39:59.453Z,12.77
2022-10-16T02:42:35.286Z,12.76
2022-10-16T02:45:01.890Z,12.75
2022-10-16T02:47:28.632Z,12.67
2022-10-16T02:49:55.368Z,12.69
2022-10-16T02:52:24.821Z,12.71
2022-10-16T02:54:52.017Z,12.69
2022-10-16T02:57:19.243Z,12.68
2022-10-16T02:59:46.400Z,12.67
2022-10-16T03:02:13.013Z,12.64
2022-10-16T03:04:39.975Z,12.59
2022-10-16T03:07:07.021Z,12.61
2022-10-16T03:09:33.885Z,12.57
2022-10-16T03:12:00.573Z,12.60
2022-10-16T03:16:58.678Z,12.60
2022-10-16T03:19:25.563Z,12.61
2022-10-16T03:21:52.439Z,12.55
2022-10-16T03:24:19.082Z,12.58
2022-10-16T03:26:45.853Z,12.45
2022-10-16T03:29:12.428Z,12.59
2022-10-16T03:31:41.566Z,12.50
2022-10-16T03:34:10.721Z,12.63
2022-10-16T03:36:37.464Z,12.56
2022-10-16T03:39:06.853Z,12.62
2022-10-16T03:41:33.442Z,12.60
2022-10-16T03:44:02.303Z,12.57
2022-10-16T03:46:28.874Z,12.55
2022-10-16T03:48:55.458Z,12.56
2022-10-16T03:51:22.177Z,12.52
2022-10-16T03:53:48.770Z,12.53
2022-10-16T03:56:15.314Z,12.37
2022-10-16T03:58:44.423Z,12.35
2022-10-16T04:01:15.921Z,12.53
2022-10-16T04:03:42.690Z,12.29
2022-10-16T04:06:10.003Z,12.52
2022-10-16T04:08:37.679Z,12.52
2022-10-16T04:11:04.812Z,12.40
2022-10-16T04:13:31.827Z,12.33
2022-10-16T04:15:58.473Z,12.49
2022-10-16T04:18:28.103Z,12.51
2022-10-16T04:20:55.355Z,12.35
2022-10-16T04:23:22.159Z,12.52
2022-10-16T04:25:48.837Z,12.32
2022-10-16T04:28:17.970Z,12.42
2022-10-16T04:30:46.783Z,12.32
2022-10-16T04:33:14.161Z,12.44
2022-10-16T04:35:40.845Z,12.44
2022-10-16T04:38:12.433Z,12.29
2022-10-16T04:40:42.105Z,12.26
2022-10-16T04:43:09.314Z,12.39
2022-10-16T04:45:38.164Z,12.35
2022-10-16T04:48:09.506Z,12.34
2022-10-16T04:50:38.755Z,12.38
2022-10-16T04:53:06.520Z,12.36
2022-10-16T04:55:33.238Z,12.34
2022-10-16T04:57:59.905Z,12.15
2022-10-16T05:00:28.922Z,12.15
2022-10-16T05:02:58.541Z,12.27
2022-10-16T05:05:26.067Z,12.29
2022-10-16T05:07:52.721Z,12.14
2022-10-16T05:10:19.595Z,12.25
2022-10-16T05:12:46.282Z,12.22
2022-10-16T05:15:13.030Z,12.19
2022-10-16T05:17:42.536Z,12.15
2022-10-16T05:20:12.143Z,12.14
2022-10-16T05:25:21.688Z,12.09
2022-10-16T05:27:49.952Z,12.11
2022-10-16T05:30:17.814Z,12.12
2022-10-16T05:32:51.591Z,11.92
2022-10-16T05:35:21.761Z,12.10
2022-10-16T05:37:49.174Z,12.06
2022-10-16T05:40:16.535Z,12.04
2022-10-16T05:42:43.440Z,12.03
2022-10-16T05:45:13.299Z,11.99
2022-10-16T05:47:40.534Z,12.02
2022-10-16T05:50:07.966Z,11.87
2022-10-16T05:52:37.196Z,12.02
2022-10-16T05:55:05.306Z,12.02
2022-10-16T05:57:32.215Z,11.87
2022-10-16T06:00:03.392Z,12.00
2022-10-16T06:02:32.557Z,12.01
2022-10-16T06:05:01.651Z,11.93
2022-10-16T06:07:29.369Z,11.92
2022-10-16T06:09:56.219Z,11.98
2022-10-16T06:12:23.025Z,12.01
2022-10-16T06:14:51.928Z,12.01
2022-10-16T06:17:19.005Z,11.85
2022-10-16T06:19:47.861Z,12.02
2022-10-16T06:22:14.504Z,12.03
2022-10-16T06:24:43.457Z,12.04
2022-10-16T06:27:10.166Z,11.89
2022-10-16T06:29:36.902Z,11.94
2022-10-16T06:32:03.702Z,12.09
2022-10-16T06:34:30.498Z,12.18
2022-10-16T06:36:57.099Z,12.28
2022-10-16T06:39:23.827Z,12.39
2022-10-16T06:41:50.760Z,12.53
2022-10-16T06:44:19.725Z,12.67
2022-10-16T06:46:51.234Z,12.77
2022-10-16T06:49:22.591Z,12.75
2022-10-16T06:51:51.788Z,12.86
2022-10-16T06:54:18.937Z,12.60
2022-10-16T06:56:45.779Z,13.17
2022-10-16T06:59:12.539Z,13.25
2022-10-16T07:01:39.175Z,13.36
2022-10-16T07:04:05.909Z,13.46
2022-10-16T07:06:35.053Z,13.54
2022-10-16T07:09:06.674Z,13.55
2022-10-16T07:11:34.134Z,13.54
2022-10-16T07:14:01.622Z,13.45
2022-10-16T07:16:30.812Z,13.59
2022-10-16T07:19:00.890Z,13.64
2022-10-16T07:21:30.979Z,13.66
2022-10-16T07:24:02.196Z,13.76
2022-10-16T07:26:32.195Z,13.70
2022-10-16T07:28:59.370Z,13.72
2022-10-16T07:31:26.673Z,13.58
2022-10-16T07:33:53.897Z,13.63
2022-10-16T07:36:21.716Z,13.85
2022-10-16T07:38:48.731Z,13.78
2022-10-16T07:41:17.821Z,13.99
2022-10-16T07:43:49.448Z,14.06
2022-10-16T07:46:17.653Z,14.13
2022-10-16T07:48:47.934Z,14.17
2022-10-16T07:51:17.550Z,14.05
2022-10-16T07:53:44.359Z,14.11
2022-10-16T07:56:12.755Z,14.09
2022-10-16T07:58:39.917Z,14.07
2022-10-16T08:01:12.627Z,13.87
2022-10-16T08:03:39.720Z,13.94
2022-10-16T08:06:06.568Z,13.95
2022-10-16T08:08:33.318Z,13.77
2022-10-16T08:11:04.813Z,13.94
2022-10-16T08:13:32.727Z,14.08
2022-10-16T08:15:59.575Z,13.94
2022-10-16T08:18:26.464Z,14.12
2022-10-16T08:21:01.162Z,14.12
2022-10-16T08:23:28.647Z,14.11
2022-10-16T08:25:58.633Z,14.31
2022-10-16T08:28:25.779Z,14.18
2022-10-16T08:30:52.448Z,14.50
2022-10-16T08:33:19.276Z,14.37
2022-10-16T08:35:55.406Z,14.48
2022-10-16T08:38:22.651Z,14.54
2022-10-16T08:40:52.687Z,14.83
2022-10-16T08:43:38.773Z,14.94
2022-10-16T08:46:36.362Z,15.09
2022-10-16T08:49:03.927Z,15.03
2022-10-16T08:51:33.273Z,15.85
2022-10-16T08:54:06.690Z,16.84
2022-10-16T08:56:34.664Z,17.36
2022-10-16T08:59:03.240Z,17.69
2022-10-16T09:01:42.942Z,18.01
2022-10-16T09:04:42.264Z,18.24
2022-10-16T09:07:29.101Z,17.78
2022-10-16T09:10:14.416Z,18.41
2022-10-16T09:12:51.605Z,18.58
2022-10-16T09:15:38.960Z,18.68
2022-10-16T09:18:30.053Z,18.74
2022-10-16T09:21:09.666Z,18.80
2022-10-16T09:23:39.100Z,18.80
2022-10-16T09:26:10.614Z,18.52
2022-10-16T09:28:37.742Z,18.77
2022-10-16T09:31:04.628Z,18.84
2022-10-16T09:33:37.816Z,19.02
2022-10-16T09:36:06.614Z,19.12
2022-10-16T09:38:37.826Z,19.04
2022-10-16T09:41:23.078Z,19.02
2022-10-16T09:43:57.882Z,18.92
2022-10-16T09:46:35.706Z,19.02
2022-10-16T09:49:20.318Z,19.01
2022-10-16T09:51:49.701Z,18.94
2022-10-16T09:54:19.614Z,18.82
2022-10-16T09:56:53.502Z,18.90
2022-10-16T09:59:25.295Z,18.91
2022-10-16T10:01:54.109Z,18.89
2022-10-16T10:04:22.285Z,19.03
2022-10-16T10:06:54.049Z,18.92
2022-10-16T10:09:22.569Z,18.98
2022-10-16T10:11:57.963Z,19.00
2022-10-16T10:14:38.821Z,19.08
2022-10-16T10:17:16.634Z,19.14
2022-10-16T10:19:52.718Z,19.14
2022-10-16T10:22:54.215Z,19.25
2022-10-16T10:25:27.614Z,19.23
2022-10-16T10:28:23.840Z,19.50
2022-10-16T10:31:15.530Z,19.56
2022-10-16T10:34:12.389Z,19.52
2022-10-16T10:36:41.231Z,19.73
2022-10-16T10:39:19.564Z,19.89
2022-10-16T10:42:23.134Z,20.01
2022-10-16T10:44:55.289Z,20.20
2022-10-16T10:47:28.075Z,20.26
2022-10-16T10:50:04.558Z,20.37
2022-10-16T10:52:47.902Z,20.45
2022-10-16T10:55:38.766Z,20.64
2022-10-16T10:58:22.319Z,20.57
2022-10-16T11:01:01.247Z,20.11
2022-10-16T11:03:36.876Z,20.15
2022-10-16T11:06:13.676Z,20.03
2022-10-16T11:08:57.651Z,19.80
2022-10-16T11:11:36.255Z,19.98
2022-10-16T11:14:18.395Z,20.20
2022-10-16T11:17:06.605Z,20.65
2022-10-16T11:19:57.783Z,20.92
2022-10-16T11:22:35.181Z,21.07
2022-10-16T11:25:14.129Z,21.07
2022-10-16T11:27:46.008Z,21.25
2022-10-16T11:30:34.920Z,21.48
2022-10-16T11:33:13.468Z,21.46
2022-10-16T11:35:50.665Z,21.60
2022-10-16T11:38:34.303Z,21.57
2022-10-16T11:41:11.280Z,21.82
2022-10-16T11:43:47.410Z,21.77
2022-10-16T11:46:25.305Z,21.80
2022-10-16T11:49:10.029Z,21.61
2022-10-16T11:51:42.099Z,21.62
2022-10-16T11:54:36.624Z,21.55
2022-10-16T11:57:13.845Z,21.07
2022-10-16T11:59:52.368Z,21.19
2022-10-16T12:02:46.859Z,21.13
2022-10-16T12:05:22.566Z,21.45
2022-10-16T12:08:03.465Z,21.53
2022-10-16T12:13:33.130Z,21.67
2022-10-16T12:16:10.179Z,21.49
2022-10-16T12:18:36.877Z,21.74
2022-10-16T12:21:08.405Z,21.90
2022-10-16T12:23:40.221Z,21.89
2022-10-16T12:26:09.552Z,21.86
2022-10-16T12:28:37.466Z,21.86
2022-10-16T12:31:11.138Z,21.90
2022-10-16T12:33:41.279Z,21.98
2022-10-16T12:36:27.472Z,22.02
2022-10-16T12:38:55.202Z,22.00
2022-10-16T12:41:29.408Z,22.03
2022-10-16T12:43:56.818Z,22.19
2022-10-16T12:46:43.739Z,22.06
2022-10-16T12:49:13.494Z,21.96
2022-10-16T12:51:41.276Z,21.77
2022-10-16T12:54:22.648Z,21.74
2022-10-16T12:57:28.189Z,21.81
2022-10-16T13:00:26.709Z,21.87
2022-10-16T13:03:01.061Z,21.81
2022-10-16T13:05:41.650Z,21.90
2022-10-16T13:08:14.158Z,22.01
2022-10-16T13:11:19.469Z,22.06
2022-10-16T13:14:13.432Z,22.03
2022-10-16T13:16:52.413Z,22.03
2022-10-16T13:19:37.208Z,21.96
2022-10-16T13:22:18.815Z,22.03
2022-10-16T13:25:21.580Z,21.87
2022-10-16T13:28:05.378Z,21.97
2022-10-16T13:30:38.474Z,21.78
2022-10-16T13:33:11.219Z,21.85
2022-10-16T13:35:38.135Z,21.81
2022-10-16T13:38:28.889Z,21.80
2022-10-16T13:41:15.187Z,21.62
2022-10-16T13:43:51.878Z,21.68
2022-10-16T13:46:24.061Z,21.48
2022-10-16T13:49:28.885Z,21.49
2022-10-16T13:51:57.902Z,21.30
2022-10-16T13:54:26.711Z,21.32
2022-10-16T13:57:03.238Z,21.25
2022-10-16T13:59:38.545Z,21.15
2022-10-16T14:02:22.712Z,21.11
2022-10-16T14:04:50.651Z,21.04
2022-10-16T14:07:29.312Z,20.97
2022-10-16T14:09:57.099Z,21.14
2022-10-16T14:12:28.263Z,21.08
2022-10-16T14:15:00.236Z,21.15
2022-10-16T14:17:36.926Z,21.37
2022-10-16T14:20:07.247Z,21.34
2022-10-16T14:22:37.033Z,21.25
2022-10-16T14:25:22.876Z,21.27
2022-10-16T14:28:00.305Z,21.15
2022-10-16T14:30:28.398Z,21.07
2022-10-16T14:33:00.920Z,21.02
2022-10-16T14:35:30.507Z,21.03
2022-10-16T14:37:59.527Z,20.98
2022-10-16T14:40:33.534Z,21.04
2022-10-16T14:43:04.096Z,21.03
2022-10-16T14:45:36.683Z,21.04
2022-10-16T14:48:17.233Z,21.09
2022-10-16T14:50:46.455Z,21.10
2022-10-16T14:53:13.721Z,21.12
2022-10-16T14:55:41.888Z,21.11
2022-10-16T14:58:22.842Z,21.07
2022-10-16T15:00:50.702Z,20.97
2022-10-16T15:03:17.908Z,20.99
2022-10-16T15:05:44.722Z,20.90
2022-10-16T15:08:11.563Z,20.88
2022-10-16T15:10:44.015Z,20.81
2022-10-16T15:13:15.419Z,20.75
2022-10-16T15:15:50.302Z,20.69
2022-10-16T15:18:21.363Z,20.68
2022-10-16T15:20:52.517Z,20.63
2022-10-16T15:23:21.697Z,20.57
2022-10-16T15:25:54.311Z,20.57
2022-10-16T15:28:23.220Z,20.43
2022-10-16T15:30:54.528Z,20.52
2022-10-16T15:33:28.509Z,20.47
2022-10-16T15:35:56.176Z,20.28
2022-10-16T15:38:23.970Z,20.21
2022-10-16T15:40:51.014Z,20.27
2022-10-16T15:43:18.133Z,20.23
2022-10-16T15:45:45.038Z,20.06
2022-10-16T15:48:15.908Z,20.13
2022-10-16T15:50:45.574Z,19.91
2022-10-16T15:53:12.165Z,19.82
2022-10-16T15:55:39.016Z,19.72
2022-10-16T15:58:06.454Z,19.77
2022-10-16T16:00:33.125Z,19.72
2022-10-16T16:02:59.969Z,19.51
2022-10-16T16:05:27.088Z,19.57
2022-10-16T16:07:53.763Z,19.48
2022-10-16T16:10:22.859Z,19.49
2022-10-16T16:12:53.083Z,19.27
2022-10-16T16:15:22.092Z,19.31
2022-10-16T16:17:49.635Z,19.25
2022-10-16T16:20:16.578Z,19.20
2022-10-16T16:22:43.451Z,19.16
2022-10-16T16:25:10.455Z,19.12
2022-10-16T16:27:39.371Z,19.05
2022-10-16T16:30:08.484Z,19.02
2022-10-16T16:32:37.628Z,18.98
2022-10-16T16:35:05.677Z,18.85
2022-10-16T16:37:35.198Z,18.84
2022-10-16T16:40:01.954Z,18.85
2022-10-16T16:42:29.257Z,18.63
2022-10-16T16:44:56.141Z,18.57
2022-10-16T16:47:24.148Z,18.51
2022-10-16T16:49:51.039Z,18.52
2022-10-16T16:52:18.265Z,18.47
2022-10-16T16:54:52.368Z,18.55
2022-10-16T16:57:20.982Z,18.49
2022-10-16T16:59:47.880Z,18.28
2022-10-16T17:02:16.949Z,18.35
2022-10-16T17:04:43.805Z,18.29
2022-10-16T17:07:10.485Z,18.22
2022-10-16T17:09:37.222Z,18.22
2022-10-16T17:12:06.689Z,18.22
2022-10-16T17:14:35.541Z,18.21
2022-10-16T17:17:02.581Z,18.15
2022-10-16T17:19:29.292Z,18.14
2022-10-16T17:21:56.190Z,17.97
2022-10-16T17:24:23.045Z,17.92
2022-10-16T17:26:50.001Z,17.88
2022-10-16T17:29:20.607Z,17.81
2022-10-16T17:31:50.100Z,17.87
2022-10-16T17:34:16.768Z,17.80
2022-10-16T17:36:44.263Z,17.80
2022-10-16T17:39:13.445Z,17.78
2022-10-16T17:41:40.257Z,17.75
2022-10-16T17:44:08.035Z,17.74
2022-10-16T17:46:41.139Z,17.72
2022-10-16T17:49:09.927Z,17.52
2022-10-16T17:51:36.841Z,17.65
2022-10-16T17:54:03.592Z,17.63
2022-10-16T17:56:33.706Z,17.62
2022-10-16T17:59:04.791Z,17.58
2022-10-16T18:01:36.879Z,17.56
2022-10-16T18:04:09.387Z,17.54
2022-10-16T18:06:37.680Z,17.48
2022-10-16T18:09:08.380Z,17.36
2022-10-16T18:11:35.378Z,17.46
2022-10-16T18:14:02.608Z,17.28
2022-10-16T18:16:31.403Z,17.44
2022-10-16T18:18:59.659Z,17.38
2022-10-16T18:21:32.223Z,17.28
2022-10-16T18:24:02.269Z,17.32
2022-10-16T18:26:29.205Z,17.46
2022-10-16T18:28:57.858Z,17.37
2022-10-16T18:31:26.503Z,17.51
2022-10-16T18:33:54.463Z,17.51
2022-10-16T18:36:30.891Z,17.38
2022-10-16T18:38:58.841Z,17.54
2022-10-16T18:41:26.913Z,17.38
2022-10-16T18:43:56.905Z,17.49
2022-10-16T18:46:24.933Z,17.46
2022-10-16T18:48:54.253Z,17.47
2022-10-16T18:51:25.102Z,17.47
2022-10-16T18:53:54.541Z,17.44
2022-10-16T18:56:23.637Z,17.36
2022-10-16T18:58:53.484Z,17.40
2022-10-16T19:01:24.765Z,17.23
2022-10-16T19:04:05.405Z,17.27
2022-10-16T19:06:41.366Z,17.31
2022-10-16T19:09:08.605Z,17.35
2022-10-16T19:11:37.975Z,17.28
2022-10-16T19:14:05.954Z,17.22
2022-10-16T19:16:36.247Z,17.16
2022-10-16T19:19:05.502Z,17.15
2022-10-16T19:21:35.729Z,17.11
2022-10-16T19:24:04.295Z,17.12
2022-10-16T19:26:33.398Z,17.13
2022-10-16T19:29:03.894Z,17.10
2022-10-16T19:31:31.528Z,17.12
2022-10-16T19:34:00.157Z,17.09
2022-10-16T19:36:29.551Z,17.10
2022-10-16T19:39:04.150Z,16.88
2022-10-16T19:41:36.528Z,17.04
2022-10-16T19:44:04.962Z,16.91
2022-10-16T19:46:32.591Z,16.88
2022-10-16T19:49:08.141Z,16.93
2022-10-16T19:51:35.305Z,16.99
2022-10-16T19:54:04.900Z,16.95
2022-10-16T19:56:33.160Z,16.86
2022-10-16T19:59:00.696Z,17.08
2022-10-16T20:01:29.516Z,16.81
2022-10-16T20:03:57.359Z,16.93
2022-10-16T20:06:26.558Z,16.90
2022-10-16T20:08:55.442Z,16.85
2022-10-16T20:11:25.812Z,16.66
2022-10-16T20:13:54.575Z,16.57
2022-10-16T20:16:21.697Z,16.67
2022-10-16T20:18:50.577Z,16.65
2022-10-16T20:21:20.217Z,16.41
2022-10-16T20:23:50.949Z,16.56
2022-10-16T20:26:20.117Z,16.53
2022-10-16T20:28:46.994Z,16.47
2022-10-16T20:31:18.287Z,16.27
2022-10-16T20:33:45.537Z,16.38
2022-10-16T20:36:16.159Z,16.39
2022-10-16T20:38:43.541Z,16.38
2022-10-16T20:41:15.806Z,16.39
2022-10-16T20:43:49.247Z,16.21
2022-10-16T20:46:22.164Z,16.21
2022-10-16T20:48:55.428Z,16.31
2022-10-16T20:51:24.940Z,16.26
2022-10-16T20:54:04.030Z,16.25
2022-10-16T20:56:35.611Z,16.12
2022-10-16T20:59:02.463Z,16.21
2022-10-16T21:01:31.259Z,16.14
2022-10-16T21:04:01.947Z,16.13
2022-10-16T21:06:29.842Z,16.05
2022-10-16T21:09:03.559Z,16.04
2022-10-16T21:14:01.016Z,15.99
2022-10-16T21:16:28.464Z,15.76
2022-10-16T21:18:55.296Z,15.90
2022-10-16T21:21:25.105Z,15.72
2022-10-16T21:23:52.477Z,15.88
2022-10-16T21:26:26.274Z,15.88
2022-10-16T21:28:58.383Z,15.84
2022-10-16T21:31:25.242Z,15.65
2022-10-16T21:33:53.037Z,15.76
2022-10-16T21:36:29.177Z,15.60
2022-10-16T21:38:57.057Z,15.67
2022-10-16T21:41:26.677Z,15.75
2022-10-16T21:43:54.559Z,15.61
2022-10-16T21:46:23.723Z,15.60
2022-10-16T21:48:57.357Z,15.63
2022-10-16T21:51:33.913Z,15.59
2022-10-16T21:54:05.431Z,15.42
2022-10-16T21:56:32.825Z,15.47
2022-10-16T21:58:59.929Z,15.45
2022-10-16T22:01:31.093Z,15.31
2022-10-16T22:04:00.704Z,15.40
2022-10-16T22:06:28.638Z,15.35
2022-10-16T22:08:59.880Z,15.18
2022-10-16T22:11:38.451Z,15.27
2022-10-16T22:14:09.738Z,15.28
2022-10-16T22:16:37.302Z,15.27
2022-10-16T22:19:07.451Z,15.24
2022-10-16T22:21:39.052Z,15.22
2022-10-16T22:24:06.566Z,15.16
2022-10-16T22:26:34.431Z,14.97
2022-10-16T22:29:01.192Z,15.13
2022-10-16T22:31:27.987Z,15.14
2022-10-16T22:33:56.959Z,15.12
2022-10-16T22:36:24.193Z,15.11
2022-10-16T22:38:51.162Z,14.98
2022-10-16T22:41:17.759Z,15.05
2022-10-16T22:43:49.096Z,15.04
2022-10-16T22:46:22.367Z,15.04
2022-10-16T22:48:49.392Z,15.00
2022-10-16T22:51:17.349Z,14.93
2022-10-16T22:53:47.811Z,14.99
2022-10-16T22:56:16.232Z,14.94
2022-10-16T22:58:43.094Z,14.93
2022-10-16T23:01:20.581Z,14.90
2022-10-16T23:03:47.219Z,14.77
2022-10-16T23:06:14.781Z,14.77
2022-10-16T23:08:43.839Z,14.82
2022-10-16T23:11:13.110Z,14.83
2022-10-16T23:13:45.655Z,14.78
2022-10-16T23:16:15.197Z,14.66
2022-10-16T23:18:43.096Z,14.76
2022-10-16T23:21:12.799Z,14.65
2022-10-16T23:23:42.989Z,14.71
2022-10-16T23:26:17.541Z,14.72
2022-10-16T23:28:47.130Z,14.68
2022-10-16T23:31:15.467Z,14.65
2022-10-16T23:33:43.862Z,14.67
2022-10-16T23:36:14.369Z,14.67
2022-10-16T23:38:41.347Z,14.67
2022-10-16T23:41:07.977Z,14.60
2022-10-16T23:43:34.590Z,14.63
2022-10-16T23:46:02.177Z,14.56
2022-10-16T23:48:28.940Z,14.58
2022-10-16T23:50:55.842Z,14.41
2022-10-16T23:53:22.518Z,14.61
2022-10-16T23:55:49.132Z,14.50
2022-10-16T23:58:16.310Z,14.41
